Aérodrome :







RETROUVEZ-NOUS SUR...

 
LOGIN :

S'inscrire | Disclaimer

   EN    FR    IT 

 









Légende :    VFR   VFR Marginal   IFR   IFR Intensif   IFR Très Intensif
Visi : 
Plafond : 
>= 8 km
>= 3000ft
5 à 8 km
1000 à 3000 ft
1500m à 5 km
500 à 1000 ft
800 à 1500m
200 à 500 ft
< 800m
< 200 ft
Symboles :   Orages  Brouillard  Fortes neiges  Fortes précipitations  Vent > 20 kt






- Altitude de l'aérodrome : 534 ft
- Code IATA : PQI


KPQI - Northern Maine Regional Arpt At Presque Isle

DERNIER METAR :
  • 150256Z AUTO 06004KT 1/2SM FG OVC003 02/01 A2915 RMK AO2 UPE42RAB42E43 SLP901 P0000 60000 T00170011 58038 RVRNO

METARs EXPIRÉS :
  • 150234Z AUTO 00000KT 3/4SM UP BR OVC003 02/02 A2919 RMK AO2 P0000 RVRNO
  • 150222Z AUTO 03003KT 1 3/4SM BR OVC003 02/02 A2920 RMK AO2 UPE17 P0000
  • 150156Z AUTO 02003KT 1 3/4SM UP BR BKN003 OVC007 02/02 A2923 RMK AO2 UPB11 CIG 002V006 SLP926 P0000 T00170017
  • 150106Z AUTO 04004KT 2SM BR OVC007 02/02 A2926 RMK AO2 CIG 004V010
  • 150056Z AUTO 03005KT 2SM BR BKN005 OVC009 02/02 A2927 RMK AO2 UPE53 CIG 004V008 SLP940 P0000 T00220017
  • 150026Z AUTO 02003KT 3SM UP BR OVC003 02/02 A2930 RMK AO2 P0000
  • 150012Z AUTO 36003KT 2 1/2SM UP BR OVC003 02/02 A2930 RMK AO2 VIS 1 3/4V4 P0000

TAF KPQI
Valide du 15 à 00h jusqu'au 16 à 00h UTC


142320Z 1500/1524 09003KT 4SM -RA BR OVC010
FM150300 13009KT 5SM -RA BR OVC003 WS020/17040KT
FM151000 20011KT 5SM -RA BR OVC010 WS020/20045KT
FM151200 22012G23KT P6SM VCSH OVC020
FM151900 25022G38KT P6SM OVC030
FM152200 27022G38KT P6SM BKN050



MET'MAP, la Météo Aéronautique d'un coup d'oeil ! - Copyright ORBIFLY Décembre 2007 - Disclaimer

ORBIFLY MET'MAP TEAM :

Programmation & Développement : Alexandra Zaïnal
Sur une idée originale de : Baudouin d'Aumeries
Assistance à la programmation : Marc-Olivier Méhu
Soutien technique & logistique : Manuel Goepfert

Contact : metmap@orbifly.com




SOURCES & CREDITS :

   NOAA